Time;durP1;ratioP1;P1;durP2;ratioP2;P2;SDS_P1;SDS_P2;PMS_P1;PMS_P2;Temp;Humidity;BMP_temperature;BMP_pressure;BME280_temperature;BME280_humidity;BME280_pressure;Samples;Min_cycle;Max_cycle;Signal;HPM_P1;HPM_P2
2024/02/01 00:02:24;;;;;;;5.37;4.00;;;9.30;99.90;;;;;;5071354;28;20173;-70
2024/02/01 00:04:49;;;;;;;5.43;3.27;;;9.20;99.90;;;;;;5071065;28;20198;-70
2024/02/01 00:07:15;;;;;;;6.00;4.03;;;9.20;99.90;;;;;;5074729;28;20170;-70
2024/02/01 00:09:41;;;;;;;4.83;3.47;;;9.30;99.90;;;;;;5074954;28;20162;-70
2024/02/01 00:12:07;;;;;;;6.27;4.40;;;9.30;99.90;;;;;;5074861;28;20151;-70
2024/02/01 00:14:32;;;;;;;8.30;4.33;;;9.30;99.90;;;;;;5074720;28;20170;-70
2024/02/01 00:16:58;;;;;;;9.93;4.27;;;9.30;99.90;;;;;;5074580;28;20403;-70
2024/02/01 00:19:24;;;;;;;7.40;4.40;;;9.30;99.90;;;;;;5074506;28;20204;-71
2024/02/01 00:21:49;;;;;;;4.10;3.30;;;9.30;99.90;;;;;;5074745;28;20159;-71
2024/02/01 00:24:15;;;;;;;10.10;3.60;;;9.30;99.90;;;;;;5074586;28;20501;-71
2024/02/01 00:26:41;;;;;;;3.53;3.20;;;9.30;99.90;;;;;;5074616;28;20243;-71
2024/02/01 00:29:06;;;;;;;4.97;3.87;;;9.30;99.90;;;;;;5074304;28;20806;-71
2024/02/01 00:31:32;;;;;;;5.43;4.20;;;9.40;99.90;;;;;;5074545;28;20170;-70
2024/02/01 00:34:00;;;;;;;4.70;3.20;;;9.40;99.90;;;;;;5074561;28;20163;-71
2024/02/01 00:36:25;;;;;;;4.43;3.00;;;9.40;99.90;;;;;;5073896;28;20213;-71
2024/02/01 00:38:50;;;;;;;4.90;3.50;;;9.40;99.90;;;;;;5074076;28;20892;-71
2024/02/01 00:41:17;;;;;;;8.50;3.63;;;9.40;99.90;;;;;;5074268;28;20194;-71
2024/02/01 00:43:43;;;;;;;6.57;3.13;;;9.40;99.90;;;;;;5074338;28;20166;-71
2024/02/01 00:46:09;;;;;;;7.23;4.70;;;9.40;99.90;;;;;;5074276;28;20420;-70
2024/02/01 00:48:35;;;;;;;4.30;3.30;;;9.40;99.90;;;;;;5074036;28;20165;-71
2024/02/01 00:51:00;;;;;;;9.60;3.73;;;9.50;99.90;;;;;;5074194;28;20415;-71
2024/02/01 00:53:27;;;;;;;5.30;4.27;;;9.50;99.90;;;;;;5073901;28;20244;-70
2024/02/01 00:55:53;;;;;;;7.37;4.03;;;9.50;99.90;;;;;;5073997;28;20552;-71
2024/02/01 00:58:18;;;;;;;5.30;4.20;;;9.50;99.90;;;;;;5073787;28;20400;-71
2024/02/01 01:00:44;;;;;;;9.70;3.93;;;9.50;99.90;;;;;;5073854;28;20459;-71
2024/02/01 01:03:09;;;;;;;10.93;3.60;;;9.50;99.90;;;;;;5073688;28;20166;-70
2024/02/01 01:05:35;;;;;;;7.23;3.93;;;9.50;99.90;;;;;;5073502;28;20502;-71
2024/02/01 01:08:00;;;;;;;6.10;4.17;;;9.40;99.90;;;;;;5073507;28;20571;-71
2024/02/01 01:10:26;;;;;;;5.30;4.17;;;9.50;99.90;;;;;;5073792;28;20192;-71
2024/02/01 01:12:51;;;;;;;9.20;3.90;;;9.50;99.90;;;;;;5073714;28;20166;-71
2024/02/01 01:15:17;;;;;;;5.83;4.07;;;9.40;99.90;;;;;;5073269;28;20281;-71
2024/02/01 01:17:43;;;;;;;4.77;3.70;;;9.50;99.90;;;;;;5073387;28;20189;-71
2024/02/01 01:20:09;;;;;;;7.30;4.53;;;9.50;99.90;;;;;;5073596;28;20194;-71
2024/02/01 01:22:35;;;;;;;8.53;5.37;;;9.40;99.90;;;;;;5073461;28;20537;-71
2024/02/01 01:25:00;;;;;;;6.80;4.10;;;9.40;99.90;;;;;;5073432;28;20416;-71
2024/02/01 01:27:26;;;;;;;6.37;4.40;;;9.40;99.90;;;;;;5073193;28;20404;-70
2024/02/01 01:29:52;;;;;;;4.87;4.33;;;9.30;99.90;;;;;;5072187;28;20202;-71
2024/02/01 01:32:17;;;;;;;6.80;4.80;;;9.30;99.90;;;;;;5073247;28;20202;-71
2024/02/01 01:34:43;;;;;;;10.13;4.83;;;9.30;99.90;;;;;;5072803;28;20166;-71
2024/02/01 01:37:08;;;;;;;8.40;5.10;;;9.20;99.90;;;;;;5072913;28;20199;-70
2024/02/01 01:39:34;;;;;;;6.10;4.30;;;9.20;99.90;;;;;;5073063;28;20202;-71
2024/02/01 01:41:59;;;;;;;10.03;4.23;;;9.10;99.90;;;;;;5073180;28;20178;-71
2024/02/01 01:44:25;;;;;;;6.67;4.77;;;9.10;99.90;;;;;;5073140;28;20169;-70
2024/02/01 01:46:51;;;;;;;9.33;5.03;;;8.90;99.90;;;;;;5071500;28;20691;-70
2024/02/01 01:49:17;;;;;;;8.07;5.40;;;8.90;99.90;;;;;;5072932;28;20193;-71
2024/02/01 01:51:46;;;;;;;8.77;5.60;;;8.80;99.90;;;;;;5072914;28;20429;-71
2024/02/01 01:54:12;;;;;;;6.13;4.80;;;8.80;99.90;;;;;;5072760;28;20938;-71
2024/02/01 01:56:42;;;;;;;7.37;5.30;;;8.70;99.90;;;;;;5072724;28;20490;-70
2024/02/01 01:59:10;;;;;;;9.33;5.20;;;8.70;99.90;;;;;;5072351;28;20397;-71
2024/02/01 02:01:38;;;;;;;8.30;6.30;;;8.60;99.90;;;;;;5072711;28;20760;-70
2024/02/01 02:04:06;;;;;;;7.00;5.77;;;8.60;99.90;;;;;;5072597;28;20962;-70
2024/02/01 02:06:32;;;;;;;11.00;5.63;;;8.60;99.90;;;;;;5072570;28;20939;-70
2024/02/01 02:08:58;;;;;;;14.40;6.57;;;8.60;99.90;;;;;;5072350;28;20438;-71
2024/02/01 02:11:25;;;;;;;10.63;5.27;;;8.60;99.90;;;;;;5072525;28;20440;-71
2024/02/01 02:13:52;;;;;;;12.50;6.57;;;8.50;99.90;;;;;;5072552;28;20396;-71
2024/02/01 02:16:17;;;;;;;7.70;5.90;;;8.60;99.90;;;;;;5072352;28;20421;-71
2024/02/01 02:18:43;;;;;;;8.30;6.23;;;8.60;99.90;;;;;;5072061;28;20407;-72
2024/02/01 02:21:12;;;;;;;11.33;6.80;;;8.60;99.90;;;;;;5072305;28;20197;-71
2024/02/01 02:23:38;;;;;;;7.97;6.73;;;8.50;99.90;;;;;;5072338;28;20158;-72
2024/02/01 02:26:05;;;;;;;10.20;6.30;;;8.50;99.90;;;;;;5070986;28;20454;-71
2024/02/01 02:28:35;;;;;;;8.20;7.17;;;8.50;99.90;;;;;;5071331;28;20880;-71
2024/02/01 02:31:01;;;;;;;7.67;6.80;;;8.50;99.90;;;;;;5071023;28;20779;-71
2024/02/01 02:33:27;;;;;;;11.27;6.77;;;8.50;99.90;;;;;;5072036;28;20415;-71
2024/02/01 02:35:53;;;;;;;6.70;5.87;;;8.50;99.90;;;;;;5070743;28;20444;-71
2024/02/01 02:38:19;;;;;;;8.07;6.90;;;8.40;99.90;;;;;;5071876;28;20174;-72
2024/02/01 02:40:44;;;;;;;7.53;5.97;;;8.40;99.90;;;;;;5072269;28;20221;-71
2024/02/01 02:43:10;;;;;;;11.00;6.97;;;8.50;99.90;;;;;;5072210;28;20846;-71
2024/02/01 02:45:35;;;;;;;8.30;5.47;;;8.50;99.90;;;;;;5071929;28;20178;-70
2024/02/01 02:48:05;;;;;;;11.63;6.57;;;8.50;99.90;;;;;;5071826;28;20173;-71
2024/02/01 02:50:31;;;;;;;7.80;5.23;;;8.50;99.90;;;;;;5071948;28;20182;-71
2024/02/01 02:52:56;;;;;;;5.40;4.90;;;8.50;99.90;;;;;;5071848;28;20463;-71
2024/02/01 02:55:22;;;;;;;7.07;5.10;;;8.50;99.90;;;;;;5071828;28;21054;-71
2024/02/01 02:57:47;;;;;;;9.00;6.60;;;8.50;99.90;;;;;;5071769;28;20227;-71
2024/02/01 03:00:18;;;;;;;7.70;5.40;;;8.50;99.90;;;;;;5071811;28;20273;-71
2024/02/01 03:02:45;;;;;;;8.70;5.43;;;8.50;99.90;;;;;;5071871;28;20189;-71
2024/02/01 03:05:11;;;;;;;6.60;5.70;;;8.50;99.90;;;;;;5071517;28;20422;-71
2024/02/01 03:07:36;;;;;;;7.93;5.63;;;8.50;99.90;;;;;;5071661;28;20884;-71
2024/02/01 03:10:04;;;;;;;10.47;6.70;;;8.40;99.90;;;;;;5071866;28;20170;-72
2024/02/01 03:12:29;;;;;;;7.00;5.47;;;8.50;99.90;;;;;;5071857;28;20170;-72
2024/02/01 03:14:55;;;;;;;7.90;6.40;;;8.50;99.90;;;;;;5070625;28;20429;-72
2024/02/01 03:17:20;;;;;;;7.33;5.67;;;8.50;99.90;;;;;;5071625;28;20249;-71
2024/02/01 03:19:49;;;;;;;7.20;5.97;;;8.40;99.90;;;;;;5070272;28;20190;-72
2024/02/01 03:22:19;;;;;;;14.30;6.70;;;8.50;99.90;;;;;;5071637;28;20158;-72
2024/02/01 03:24:45;;;;;;;6.70;5.17;;;8.40;99.90;;;;;;5071466;28;20487;-72
2024/02/01 03:27:11;;;;;;;5.93;5.33;;;8.50;99.90;;;;;;5071314;28;20405;-72
2024/02/01 03:29:37;;;;;;;6.70;5.80;;;8.50;99.90;;;;;;5071537;28;20404;-72
2024/02/01 03:32:05;;;;;;;6.73;5.10;;;8.50;99.90;;;;;;5071624;28;20767;-71
2024/02/01 03:34:31;;;;;;;7.03;5.07;;;8.40;99.90;;;;;;5071470;28;20537;-71
2024/02/01 03:36:57;;;;;;;12.40;8.33;;;8.60;99.90;;;;;;5071295;28;20546;-72
2024/02/01 03:39:23;;;;;;;7.83;5.97;;;8.60;99.90;;;;;;5073582;28;20490;-71
2024/02/01 03:41:52;;;;;;;8.80;5.67;;;8.60;99.90;;;;;;5075477;28;20175;-71
2024/02/01 03:44:18;;;;;;;11.20;6.47;;;8.60;99.90;;;;;;5075477;28;20170;-71
2024/02/01 03:46:44;;;;;;;5.93;5.17;;;8.60;99.90;;;;;;5075248;28;20950;-71
2024/02/01 03:49:10;;;;;;;5.80;5.10;;;8.60;99.90;;;;;;5075104;28;20397;-72
2024/02/01 03:51:36;;;;;;;11.70;8.20;;;8.60;99.90;;;;;;5075295;28;20532;-72
2024/02/01 03:54:09;;;;;;;9.40;6.90;;;8.60;99.90;;;;;;5075058;28;20177;-72
2024/02/01 03:56:35;;;;;;;7.30;5.10;;;8.70;99.90;;;;;;5075201;28;20412;-72
2024/02/01 03:59:03;;;;;;;6.10;4.60;;;8.70;99.90;;;;;;5074705;28;20427;-72
2024/02/01 04:01:29;;;;;;;14.77;9.90;;;8.60;99.90;;;;;;5075016;28;20451;-72
2024/02/01 04:03:56;;;;;;;6.50;5.50;;;8.70;99.90;;;;;;5074988;28;20897;-72
2024/02/01 04:06:23;;;;;;;6.23;4.70;;;8.60;99.90;;;;;;5075017;28;21028;-71
2024/02/01 04:08:51;;;;;;;5.23;4.40;;;8.60;99.90;;;;;;5074772;28;20759;-72
2024/02/01 04:11:17;;;;;;;7.70;5.60;;;8.70;99.90;;;;;;5074908;28;20427;-71
2024/02/01 04:13:43;;;;;;;9.00;5.83;;;8.70;99.90;;;;;;5074854;28;20924;-72
2024/02/01 04:16:08;;;;;;;4.73;4.30;;;8.70;99.90;;;;;;5074536;28;20190;-71
2024/02/01 04:18:34;;;;;;;4.93;4.53;;;8.70;99.90;;;;;;5074535;28;20559;-71
2024/02/01 04:21:00;;;;;;;6.80;6.03;;;8.70;99.90;;;;;;5074629;28;20189;-71
2024/02/01 04:23:26;;;;;;;5.07;4.53;;;8.70;99.90;;;;;;5074717;28;20181;-71
2024/02/01 04:25:52;;;;;;;7.00;5.43;;;8.70;99.90;;;;;;5074495;28;20412;-71
2024/02/01 04:28:18;;;;;;;5.97;4.60;;;8.70;99.90;;;;;;5074487;28;20158;-72
2024/02/01 04:30:50;;;;;;;7.50;4.70;;;8.70;99.90;;;;;;5074590;28;20407;-72
2024/02/01 04:33:18;;;;;;;7.80;4.90;;;8.80;99.90;;;;;;5074479;28;20503;-70
2024/02/01 04:35:44;;;;;;;6.83;5.27;;;8.80;99.90;;;;;;5074450;28;20424;-71
2024/02/01 04:38:09;;;;;;;5.70;5.10;;;8.90;99.90;;;;;;5074301;28;20432;-72
2024/02/01 04:40:35;;;;;;;6.60;5.50;;;8.90;99.90;;;;;;5074318;28;20550;-72
2024/02/01 04:43:02;;;;;;;6.80;5.50;;;8.90;99.90;;;;;;5074150;28;20170;-72
2024/02/01 04:45:27;;;;;;;10.50;6.47;;;8.90;99.90;;;;;;5074251;28;20182;-72
2024/02/01 04:47:53;;;;;;;6.67;5.30;;;8.90;99.90;;;;;;5074077;28;20404;-71
2024/02/01 04:50:19;;;;;;;7.87;6.30;;;8.90;99.90;;;;;;5073512;28;20630;-72
2024/02/01 04:52:44;;;;;;;9.90;7.43;;;9.00;99.90;;;;;;5074033;28;20714;-71
2024/02/01 04:55:10;;;;;;;9.50;8.00;;;9.00;99.90;;;;;;5074046;28;20194;-72
2024/02/01 04:57:37;;;;;;;11.57;9.20;;;9.00;99.90;;;;;;5073891;28;20682;-72
2024/02/01 05:00:13;;;;;;;10.03;7.60;;;9.10;99.90;;;;;;5072696;28;20674;-72
2024/02/01 05:02:39;;;;;;;7.70;6.90;;;9.10;99.90;;;;;;5073661;28;20415;-72
2024/02/01 05:05:04;;;;;;;9.87;8.00;;;9.10;99.90;;;;;;5073630;28;20421;-72
2024/02/01 05:07:30;;;;;;;9.67;7.07;;;9.10;99.90;;;;;;5073606;28;20483;-72
2024/02/01 05:09:55;;;;;;;6.40;5.60;;;9.20;99.90;;;;;;5073914;28;20657;-71
2024/02/01 05:12:21;;;;;;;5.63;4.97;;;9.20;99.90;;;;;;5073717;28;20174;-71
2024/02/01 05:14:46;;;;;;;5.80;5.17;;;9.30;99.90;;;;;;5074242;28;20208;-71
2024/02/01 05:17:12;;;;;;;7.40;5.77;;;9.30;99.90;;;;;;5073630;28;20579;-71
2024/02/01 05:19:37;;;;;;;7.40;5.30;;;9.40;99.90;;;;;;5072465;28;20185;-71
2024/02/01 05:22:07;;;;;;;5.67;4.90;;;9.40;99.90;;;;;;5073576;28;20169;-72
2024/02/01 05:24:33;;;;;;;7.67;6.50;;;9.40;99.90;;;;;;5073631;28;20266;-72
2024/02/01 05:26:58;;;;;;;6.70;6.03;;;9.40;99.90;;;;;;5073149;28;20987;-72
2024/02/01 05:29:25;;;;;;;8.07;6.30;;;9.50;99.90;;;;;;5073615;28;20392;-72
2024/02/01 05:31:52;;;;;;;7.90;5.97;;;9.50;99.90;;;;;;5073409;28;20166;-71
2024/02/01 05:34:19;;;;;;;9.70;5.73;;;9.60;99.90;;;;;;5071998;28;20405;-72
2024/02/01 05:36:46;;;;;;;7.60;6.03;;;9.60;99.90;;;;;;5073309;28;20416;-71
2024/02/01 05:39:24;;;;;;;8.60;6.10;;;9.60;99.90;;;;;;5072802;28;20411;-72
2024/02/01 05:41:52;;;;;;;13.80;6.27;;;9.70;99.90;;;;;;5073281;28;20964;-71
2024/02/01 05:44:18;;;;;;;9.43;6.73;;;9.70;99.90;;;;;;5073160;28;20779;-73
2024/02/01 05:46:46;;;;;;;8.53;7.00;;;9.70;99.90;;;;;;5073039;28;20475;-72
2024/02/01 05:49:12;;;;;;;11.23;7.27;;;9.70;99.90;;;;;;5072645;28;20405;-71
2024/02/01 05:51:37;;;;;;;8.50;6.60;;;9.80;99.90;;;;;;5072953;28;20415;-71
2024/02/01 05:54:04;;;;;;;9.77;8.03;;;9.80;99.90;;;;;;5072882;28;20178;-72
2024/02/01 05:56:30;;;;;;;10.87;7.03;;;9.80;99.90;;;;;;5072619;28;20656;-71
2024/02/01 05:58:55;;;;;;;9.37;6.77;;;9.90;99.90;;;;;;5072685;28;20415;-72
2024/02/01 06:01:21;;;;;;;9.13;6.77;;;9.90;99.90;;;;;;5072714;28;20568;-72
2024/02/01 06:03:47;;;;;;;14.63;8.90;;;9.80;99.90;;;;;;5072722;28;20164;-72
2024/02/01 06:06:12;;;;;;;12.87;8.23;;;9.90;99.90;;;;;;5072684;28;20192;-72
2024/02/01 06:08:38;;;;;;;15.83;8.53;;;9.80;99.90;;;;;;5072450;28;20167;-72
2024/02/01 06:11:03;;;;;;;9.80;8.00;;;9.90;99.90;;;;;;5072648;28;20625;-72
2024/02/01 06:13:29;;;;;;;10.40;8.33;;;9.90;99.90;;;;;;5072447;28;20200;-72
2024/02/01 06:15:54;;;;;;;16.87;10.87;;;9.90;99.90;;;;;;5072126;28;20235;-72
2024/02/01 06:18:20;;;;;;;12.20;9.70;;;9.90;99.90;;;;;;5071803;28;20178;-72
2024/02/01 06:20:45;;;;;;;11.10;9.50;;;10.00;99.90;;;;;;5072246;28;20206;-72
2024/02/01 06:23:11;;;;;;;14.10;10.53;;;10.00;99.90;;;;;;5072394;28;20170;-72
2024/02/01 06:25:38;;;;;;;11.80;8.80;;;10.00;99.90;;;;;;5072304;28;20280;-72
2024/02/01 06:28:04;;;;;;;11.23;9.60;;;10.00;99.90;;;;;;5072089;28;20162;-72
2024/02/01 06:30:29;;;;;;;14.10;9.43;;;10.00;99.90;;;;;;5072278;28;20542;-72
2024/02/01 06:32:55;;;;;;;15.20;10.07;;;10.00;99.90;;;;;;5072019;28;20400;-72
2024/02/01 06:35:22;;;;;;;17.50;11.47;;;10.00;99.90;;;;;;5072196;28;20645;-67
2024/02/01 06:38:04;;;;;;;14.47;10.50;;;10.00;99.90;;;;;;5071819;28;20158;-68
2024/02/01 06:40:48;;;;;;;23.60;10.30;;;10.00;99.90;;;;;;5072166;28;20462;-68
2024/02/01 06:43:27;;;;;;;15.80;11.10;;;10.00;99.90;;;;;;5072092;28;20392;-68
2024/02/01 06:46:18;;;;;;;13.63;9.60;;;10.00;99.90;;;;;;5072103;28;20415;-68
2024/02/01 06:48:46;;;;;;;17.00;9.90;;;10.00;99.90;;;;;;5071862;28;20389;-68
2024/02/01 06:51:25;;;;;;;16.93;11.00;;;10.00;99.90;;;;;;5072010;28;20487;-67
2024/02/01 06:53:57;;;;;;;18.73;10.27;;;10.00;99.90;;;;;;5071861;28;20417;-67
2024/02/01 06:56:48;;;;;;;14.70;9.17;;;10.00;99.90;;;;;;5072053;28;20432;-67
2024/02/01 06:59:31;;;;;;;10.57;9.03;;;10.00;99.90;;;;;;5071970;28;20479;-66
2024/02/01 07:02:14;;;;;;;14.77;8.90;;;10.00;99.90;;;;;;5071960;28;20409;-68
2024/02/01 07:04:50;;;;;;;10.20;7.70;;;10.00;99.90;;;;;;5071903;28;20400;-67
2024/02/01 07:07:26;;;;;;;13.40;7.10;;;9.90;99.90;;;;;;5071725;28;20781;-67
2024/02/01 07:10:05;;;;;;;9.80;8.20;;;9.90;99.90;;;;;;5071915;28;20875;-66
2024/02/01 07:12:53;;;;;;;11.13;7.10;;;9.80;99.90;;;;;;5071821;28;20404;-66
2024/02/01 07:17:58;;;;;;;14.70;8.30;;;9.60;99.90;;;;;;5071722;28;20408;-66
2024/02/01 07:20:35;;;;;;;10.27;8.20;;;9.50;99.90;;;;;;5071747;28;20440;-67
2024/02/01 07:23:05;;;;;;;9.83;6.90;;;9.40;99.90;;;;;;5071663;28;20415;-67
2024/02/01 07:25:46;;;;;;;9.53;6.17;;;9.20;99.90;;;;;;5071537;28;20424;-66
2024/02/01 07:58:19;;;;;;;6.97;3.83;;;9.60;99.90;;;;;;5070720;28;20391;-66
2024/02/01 08:00:51;;;;;;;6.50;4.20;;;9.60;99.90;;;;;;5070863;28;20452;-66
2024/02/01 08:08:40;;;;;;;4.17;2.77;;;9.50;99.90;;;;;;5070692;28;20423;-67
2024/02/01 08:11:06;;;;;;;3.83;2.17;;;9.40;99.90;;;;;;5070713;28;20822;-66
2024/02/01 08:13:31;;;;;;;5.80;2.43;;;9.40;99.90;;;;;;5070823;28;20401;-68
2024/02/01 08:15:58;;;;;;;5.30;2.83;;;9.50;99.90;;;;;;5070803;28;20190;-66
2024/02/01 08:18:26;;;;;;;12.70;2.50;;;10.40;99.90;;;;;;5070722;28;20626;-67
2024/02/01 08:20:52;;;;;;;9.17;2.50;;;11.10;99.90;;;;;;5052841;28;20444;-66
2024/02/01 08:23:23;;;;;;;4.77;2.60;;;12.20;99.90;;;;;;5070770;28;20491;-68
2024/02/01 08:25:50;;;;;;;9.50;1.93;;;13.50;99.90;;;;;;5071903;28;20428;-67
2024/02/01 08:28:16;;;;;;;5.80;1.97;;;15.10;99.90;;;;;;5074169;28;20760;-67
2024/02/01 08:30:44;;;;;;;3.47;1.80;;;16.50;99.90;;;;;;5074384;28;20405;-68
2024/02/01 08:33:19;;;;;;;6.73;2.13;;;17.70;99.90;;;;;;5074411;28;20416;-66
2024/02/01 08:35:46;;;;;;;4.63;1.90;;;18.90;99.90;;;;;;5074291;28;20432;-68
2024/02/01 08:38:12;;;;;;;7.00;2.50;;;20.00;97.90;;;;;;5070403;28;20752;-67
2024/02/01 08:40:40;;;;;;;6.40;1.93;;;21.10;88.10;;;;;;5072825;28;20490;-67
2024/02/01 08:43:07;;;;;;;4.10;2.33;;;21.90;65.40;;;;;;5074221;28;20968;-68
2024/02/01 08:45:37;;;;;;;7.60;2.50;;;22.70;58.30;;;;;;5074223;28;20758;-68
2024/02/01 08:48:04;;;;;;;6.13;2.30;;;23.50;54.20;;;;;;5073945;28;20405;-66
2024/02/01 08:50:31;;;;;;;5.60;2.13;;;24.20;50.00;;;;;;5073853;28;20439;-66
2024/02/01 08:52:56;;;;;;;6.97;2.40;;;24.80;48.30;;;;;;5073712;28;20428;-66
2024/02/01 08:55:22;;;;;;;6.53;2.50;;;25.60;46.70;;;;;;5073784;28;20822;-66
2024/02/01 08:57:48;;;;;;;7.70;2.77;;;26.30;45.80;;;;;;5073625;28;20174;-66
2024/02/01 09:00:21;;;;;;;8.30;3.23;;;26.90;42.50;;;;;;5073665;28;20938;-65
2024/02/01 09:03:03;;;;;;;6.33;2.40;;;27.40;40.00;;;;;;5073718;28;20190;-66
2024/02/01 09:05:48;;;;;;;8.07;3.03;;;28.00;38.90;;;;;;5073602;28;20886;-65
2024/02/01 09:08:35;;;;;;;7.40;3.47;;;28.80;38.20;;;;;;5073403;28;20404;-66
2024/02/01 09:11:09;;;;;;;7.63;3.10;;;29.30;36.60;;;;;;5073758;28;20404;-66
2024/02/01 09:13:35;;;;;;;5.70;3.00;;;29.90;35.90;;;;;;5070984;28;20778;-66
2024/02/01 09:16:01;;;;;;;4.67;2.37;;;30.60;35.50;;;;;;5066725;28;20424;-66
2024/02/01 09:18:26;;;;;;;8.07;2.03;;;31.10;33.70;;;;;;5063867;28;20226;-66
2024/02/01 09:20:52;;;;;;;4.97;2.63;;;31.70;32.60;;;;;;5053551;28;20203;-67
2024/02/01 09:23:18;;;;;;;6.03;2.17;;;32.10;31.60;;;;;;5053491;28;20228;-67
2024/02/01 09:25:44;;;;;;;3.80;2.27;;;32.50;31.10;;;;;;5053203;28;20429;-66
2024/02/01 09:28:13;;;;;;;6.60;2.73;;;32.90;30.60;;;;;;5053207;28;20163;-66
2024/02/01 09:30:45;;;;;;;4.80;2.30;;;33.40;29.90;;;;;;5054752;28;20193;-66
2024/02/01 09:33:15;;;;;;;4.70;2.73;;;33.90;29.10;;;;;;5073382;28;20422;-67
2024/02/01 09:35:40;;;;;;;11.97;2.60;;;34.00;27.90;;;;;;5073287;28;20435;-66
2024/02/01 09:38:06;;;;;;;6.03;2.60;;;34.40;27.80;;;;;;5072780;28;20409;-67
2024/02/01 09:40:32;;;;;;;9.60;2.60;;;34.80;27.30;;;;;;5073166;28;20220;-66
2024/02/01 09:42:59;;;;;;;9.43;3.00;;;35.00;27.00;;;;;;5073145;28;20163;-67
2024/02/01 09:45:28;;;;;;;8.83;3.13;;;35.20;26.90;;;;;;5073095;28;20416;-67
2024/02/01 09:47:56;;;;;;;7.57;3.20;;;35.20;26.10;;;;;;5072969;28;20413;-67
2024/02/01 09:50:22;;;;;;;8.50;2.90;;;35.40;25.80;;;;;;5073091;28;20407;-66
2024/02/01 09:52:50;;;;;;;6.60;2.83;;;35.40;25.40;;;;;;5072860;28;20518;-67
2024/02/01 09:55:19;;;;;;;6.17;3.23;;;35.60;25.50;;;;;;5072876;28;20419;-67
2024/02/01 09:57:52;;;;;;;6.10;2.80;;;35.90;25.40;;;;;;5072566;28;20888;-67
2024/02/01 10:00:22;;;;;;;4.17;2.20;;;36.20;25.20;;;;;;5072768;28;20451;-67
2024/02/01 10:02:49;;;;;;;6.63;3.00;;;36.70;25.00;;;;;;5072744;28;20424;-68
2024/02/01 10:05:15;;;;;;;6.97;3.53;;;37.00;24.50;;;;;;5072707;28;21162;-67
2024/02/01 10:07:41;;;;;;;15.83;3.00;;;37.20;24.10;;;;;;5072433;28;20492;-68
2024/02/01 10:10:07;;;;;;;7.00;3.40;;;36.70;23.20;;;;;;5072621;28;20166;-68
2024/02/01 10:12:34;;;;;;;6.23;3.40;;;35.90;23.80;;;;;;5072565;28;20173;-68
2024/02/01 10:15:07;;;;;;;10.30;3.33;;;35.50;24.00;;;;;;5072488;28;20420;-67
2024/02/01 10:17:32;;;;;;;5.73;3.07;;;34.50;23.80;;;;;;5072206;28;20720;-67
2024/02/01 10:19:58;;;;;;;6.80;2.87;;;32.60;24.10;;;;;;5072307;28;20436;-67
2024/02/01 10:22:32;;;;;;;6.43;2.97;;;31.50;25.30;;;;;;5073702;28;20212;-67
2024/02/01 10:24:58;;;;;;;7.40;2.80;;;31.20;25.80;;;;;;5072357;28;20605;-67
2024/02/01 10:27:23;;;;;;;8.13;2.30;;;29.80;25.80;;;;;;5070649;28;20492;-67
2024/02/01 10:29:49;;;;;;;7.40;2.00;;;28.30;26.40;;;;;;5071947;28;20178;-66
2024/02/01 10:32:16;;;;;;;7.17;2.73;;;27.30;27.50;;;;;;5072196;28;20169;-67
2024/02/01 10:34:45;;;;;;;5.70;2.57;;;27.10;28.50;;;;;;5071790;28;20408;-67
2024/02/01 10:37:15;;;;;;;6.70;2.70;;;26.50;28.80;;;;;;5071847;28;20770;-70
2024/02/01 10:39:54;;;;;;;4.20;2.23;;;26.60;29.60;;;;;;5071964;28;20396;-70
2024/02/01 10:42:22;;;;;;;9.07;2.50;;;26.40;29.70;;;;;;5072063;28;20401;-70
2024/02/01 10:44:49;;;;;;;4.60;2.50;;;27.50;30.10;;;;;;5070018;28;20408;-70
2024/02/01 10:47:20;;;;;;;7.57;2.30;;;28.20;29.60;;;;;;5071103;28;20392;-69
2024/02/01 10:49:52;;;;;;;10.80;3.00;;;28.50;29.00;;;;;;5071266;28;20401;-69
2024/02/01 10:52:20;;;;;;;8.90;2.50;;;28.00;28.50;;;;;;5071637;28;20489;-69
2024/02/01 10:54:49;;;;;;;6.87;2.33;;;28.60;28.90;;;;;;5071178;28;20408;-69
2024/02/01 10:57:16;;;;;;;8.03;3.17;;;28.30;28.30;;;;;;5070004;28;20550;-69
2024/02/01 10:59:44;;;;;;;7.93;2.87;;;27.60;28.10;;;;;;5071520;28;20412;-69
2024/02/01 11:02:10;;;;;;;6.97;2.03;;;27.00;28.40;;;;;;5071557;28;20392;-70
2024/02/01 11:04:37;;;;;;;5.20;2.83;;;28.10;30.10;;;;;;5071702;28;20479;-70
2024/02/01 11:07:03;;;;;;;6.90;3.03;;;29.70;29.70;;;;;;5071488;28;20491;-69
2024/02/01 11:09:29;;;;;;;6.87;2.60;;;31.10;28.80;;;;;;5070564;28;20982;-69
2024/02/01 11:11:55;;;;;;;6.20;3.50;;;32.60;29.00;;;;;;5070445;28;20405;-70
2024/02/01 11:14:21;;;;;;;8.40;3.77;;;33.80;27.90;;;;;;5071473;28;20163;-70
2024/02/01 11:16:52;;;;;;;7.70;3.80;;;33.90;26.20;;;;;;5071693;28;20436;-70
2024/02/01 11:19:32;;;;;;;8.57;3.67;;;34.50;25.40;;;;;;5071631;28;20483;-71
2024/02/01 11:22:01;;;;;;;6.93;3.60;;;35.40;25.60;;;;;;5071605;28;20416;-70
2024/02/01 11:24:28;;;;;;;6.23;4.10;;;36.00;24.60;;;;;;5071510;28;20949;-70
2024/02/01 11:26:57;;;;;;;7.87;3.83;;;36.60;24.20;;;;;;5091174;28;20457;-71
2024/02/01 11:29:25;;;;;;;7.10;2.77;;;37.10;23.70;;;;;;5091789;28;20457;-72
2024/02/01 11:31:56;;;;;;;5.13;2.90;;;37.70;23.30;;;;;;5091526;28;20808;-71
2024/02/01 11:34:25;;;;;;;10.13;2.93;;;38.20;23.00;;;;;;5091856;28;20426;-71
2024/02/01 11:36:51;;;;;;;6.43;3.20;;;38.60;22.80;;;;;;5091588;28;20496;-69
2024/02/01 11:39:17;;;;;;;7.03;2.97;;;39.20;23.00;;;;;;5091752;28;20383;-71
2024/02/01 11:41:46;;;;;;;5.47;2.80;;;39.90;22.80;;;;;;5091804;28;20550;-70
2024/02/01 11:44:19;;;;;;;6.23;2.80;;;40.00;21.50;;;;;;5091767;28;20411;-69
2024/02/01 11:46:45;;;;;;;7.63;2.73;;;39.20;21.10;;;;;;5090403;28;20435;-70
2024/02/01 11:49:19;;;;;;;7.07;2.57;;;38.30;21.10;;;;;;5091499;28;20435;-71
2024/02/01 11:52:13;;;;;;;4.00;2.60;;;37.20;21.00;;;;;;5091596;28;20407;-70
2024/02/01 11:54:51;;;;;;;10.10;3.27;;;35.90;21.70;;;;;;5084298;28;20778;-70
2024/02/01 11:57:20;;;;;;;4.23;3.07;;;35.70;22.20;;;;;;5091551;28;20411;-70
2024/02/01 11:59:46;;;;;;;5.73;2.00;;;35.80;22.40;;;;;;5092682;28;20472;-70
2024/02/01 12:02:12;;;;;;;8.10;2.80;;;36.20;22.50;;;;;;5095401;28;20420;-69
2024/02/01 12:04:40;;;;;;;4.73;2.93;;;36.10;22.30;;;;;;5093961;28;20438;-70
2024/02/01 12:07:08;;;;;;;7.40;3.20;;;36.20;22.10;;;;;;5095055;28;20909;-68
2024/02/01 12:09:34;;;;;;;5.20;2.37;;;35.80;22.00;;;;;;5095214;28;20487;-68
2024/02/01 12:12:00;;;;;;;6.33;2.70;;;35.40;22.00;;;;;;5095106;28;20486;-68
2024/02/01 12:14:27;;;;;;;11.30;3.20;;;33.70;21.60;;;;;;5095199;28;20439;-69
2024/02/01 12:16:55;;;;;;;7.90;3.07;;;32.50;22.50;;;;;;5094743;28;20463;-68
2024/02/01 12:19:25;;;;;;;6.17;3.83;;;32.20;22.90;;;;;;5095086;28;20396;-69
2024/02/01 12:21:54;;;;;;;6.13;4.00;;;32.00;23.20;;;;;;5094896;28;20542;-69
2024/02/01 12:24:26;;;;;;;10.90;3.13;;;32.50;23.80;;;;;;5094860;28;20913;-68
2024/02/01 12:26:52;;;;;;;7.73;3.40;;;31.80;23.10;;;;;;5094582;28;20412;-71
2024/02/01 12:29:18;;;;;;;6.10;2.97;;;31.20;23.30;;;;;;5094807;28;20419;-69
2024/02/01 12:31:44;;;;;;;7.83;3.23;;;31.60;24.10;;;;;;5094816;28;20805;-68
2024/02/01 12:34:13;;;;;;;9.33;3.63;;;32.30;24.20;;;;;;5094819;28;20174;-69
2024/02/01 12:36:39;;;;;;;3.93;2.80;;;33.40;24.10;;;;;;5093333;28;20189;-69
2024/02/01 12:39:05;;;;;;;4.97;2.87;;;34.20;23.30;;;;;;5093145;28;20418;-69
2024/02/01 12:41:34;;;;;;;8.67;4.00;;;34.80;22.80;;;;;;5094822;28;20930;-69
2024/02/01 12:44:01;;;;;;;4.73;2.97;;;35.50;22.50;;;;;;5095180;28;20162;-68
2024/02/01 12:46:27;;;;;;;5.17;3.03;;;35.90;21.70;;;;;;5094458;28;20926;-69
2024/02/01 12:48:53;;;;;;;3.90;2.63;;;36.30;21.40;;;;;;5094295;28;20403;-69
2024/02/01 12:51:26;;;;;;;9.40;3.47;;;36.60;21.40;;;;;;5094411;28;20177;-69
2024/02/01 12:53:59;;;;;;;11.60;3.27;;;36.90;21.40;;;;;;5094317;28;20177;-69
2024/02/01 12:56:25;;;;;;;6.90;3.67;;;37.40;21.50;;;;;;5094331;28;20426;-69
2024/02/01 12:58:54;;;;;;;8.83;4.83;;;37.90;21.60;;;;;;5094050;28;20403;-69
2024/02/01 13:01:22;;;;;;;12.50;3.50;;;37.90;20.80;;;;;;5092927;28;20531;-68
2024/02/01 13:03:49;;;;;;;5.70;3.17;;;37.70;20.80;;;;;;5094049;28;20424;-68
2024/02/01 13:06:16;;;;;;;5.63;3.20;;;36.10;20.60;;;;;;5093989;28;20412;-68
2024/02/01 13:08:42;;;;;;;13.00;3.70;;;35.00;21.10;;;;;;5092295;28;20404;-68
2024/02/01 13:11:11;;;;;;;5.00;3.67;;;33.40;21.60;;;;;;5093367;28;20533;-68
2024/02/01 13:13:37;;;;;;;8.03;3.63;;;31.70;21.90;;;;;;5093971;28;20180;-68
2024/02/01 13:16:03;;;;;;;7.03;3.23;;;29.70;22.50;;;;;;5092404;28;20454;-68
2024/02/01 13:18:29;;;;;;;5.50;2.60;;;28.00;23.70;;;;;;5093631;28;20456;-68
2024/02/01 13:20:57;;;;;;;8.60;3.57;;;26.30;24.60;;;;;;5093731;28;20439;-68
2024/02/01 13:23:23;;;;;;;8.97;3.37;;;25.10;25.70;;;;;;5093607;28;20663;-69
2024/02/01 13:25:50;;;;;;;6.33;3.47;;;23.80;26.30;;;;;;5093642;28;20843;-69
2024/02/01 13:28:16;;;;;;;11.03;3.03;;;22.80;27.20;;;;;;5093454;28;20895;-68
2024/02/01 13:30:44;;;;;;;5.60;2.73;;;22.50;28.20;;;;;;5093662;28;20411;-68
2024/02/01 13:33:10;;;;;;;4.83;2.77;;;21.90;28.80;;;;;;5092335;28;20173;-68